Terminal Aerodrome Forecast
Issued by NWS Rapid City, SD

Home | Current Version | Previous Version | Text Only | Print | Product List | Glossary Off
Versions: 1 2 3 4 5 6 7 8 9 10 11 12 13

000
FTUS43 KUNR 261732
TAFRAP
TAF
KRAP 261732Z 2618/2718 09011KT P6SM SCT150
     FM270000 03011KT P6SM -SHRA BKN100
     FM270600 34011KT P6SM BKN100=

USA.gov is the U.S. government's official web portal to all federal, state and local government web resources and services.